Drake Field Fayetteville US
ICAO: KFYV
IATA: FYV
Category: Medium
Scheduled Services: No

Elevation: 1251 ft
TransAlt. 18000 ft.

Airport Communications:
RAZORBACK APP/DEP:121
ATIS:133.1
CTAF:128
GND:121.8
JONESBORO RDO:122.3
TWR:128
UNICOM:122.95

KFYV Zoom In..

If you have problems with the map follow the link
https://www.worldairports.se/pages/airport.php?
ICAO=KFYV

Runways:

(A) RW 16 length 6005 ft width 100 ft
LOC 111.90 / hdg 164

(B) RW 34 length 6005 ft width 100 ft
LOC 111.90 / hdg 344

Location; KFYV
Day. 21 / Time. 17.53 Zulu
* Altimeter: 30.33
* Temperature: 16° c. 60.8°f.
* Wind from: 310° Speed 03 kn.
Dewpoint: 00° c.
Visibility: 10 Statute Miles.
Clouds: Clear (automated report).

KFYV 211753Z 31003KT 10SM CLR 16/00 A3033 RMK AO2 SLP272 I6000 T01560000 10156 21011 58018


Wind From 310°
Speed 03 kn.

 
 
jpsmedia.com for Web Design worldairports.se 2018   terms of use